Terminal Aerodrome Forecast
Issued by NWS

Home | Current Version | Previous Version | Text Only | Print | Product List | Glossary On
Versions: 1 2 3 4 5 6 7 8 9 10 11 12 13 14 15 16 17 18 19 20
000
FTUS42 KMHX 231700 AAA
TAFOAJ
TAF AMD
KOAJ 231752Z 2318/2418 08006KT P6SM VCSH SCT025 BKN050
      TEMPO 2318/2319 2SM +RA BKN020
     FM240100 04004KT P6SM SCT010 BKN020
     FM241400 06011G17KT P6SM BKN030
      AMD LTD TO CLD VIS AND WIND=

USA.gov is the U.S. government's official web portal to all federal, state and local government web resources and services.